Time;durP1;ratioP1;P1;durP2;ratioP2;P2;SDS_P1;SDS_P2;PMS_P1;PMS_P2;Temp;Humidity;BMP_temperature;BMP_pressure;BME280_temperature;BME280_humidity;BME280_pressure;Samples;Min_cycle;Max_cycle;Signal;HPM_P1;HPM_P2
2022/07/10 00:00:55;;;;;;;8.10;3.25;;;;;;;;;;4841008;29;20137;-75
2022/07/10 00:03:25;;;;;;;9.25;3.30;;;;;;;;;;4840706;29;20050;-75
2022/07/10 00:05:56;;;;;;;15.43;3.78;;;;;;;;;;4824974;29;20069;-75
2022/07/10 00:08:26;;;;;;;10.77;3.38;;;;;;;;;;4855711;29;20072;-75
2022/07/10 00:10:56;;;;;;;10.25;3.53;;;;;;;;;;4840066;29;20102;-75
2022/07/10 00:13:27;;;;;;;14.60;4.05;;;;;;;;;;4867701;29;20405;-75
2022/07/10 00:15:57;;;;;;;9.55;3.42;;;;;;;;;;4893371;29;20044;-76
2022/07/10 00:18:30;;;;;;;13.65;3.42;;;;;;;;;;4877248;29;20053;-74
2022/07/10 00:21:01;;;;;;;9.38;3.10;;;;;;;;;;4861872;29;20528;-74
2022/07/10 00:23:31;;;;;;;9.80;3.03;;;;;;;;;;4892890;29;20053;-74
2022/07/10 00:26:01;;;;;;;9.73;2.97;;;;;;;;;;4856137;29;20413;-75
2022/07/10 00:28:31;;;;;;;13.07;3.83;;;;;;;;;;4898821;29;20056;-74
2022/07/10 00:31:01;;;;;;;7.22;3.17;;;;;;;;;;4896428;29;20053;-74
2022/07/10 00:33:32;;;;;;;9.57;3.47;;;;;;;;;;4895730;29;20065;-76
2022/07/10 00:36:02;;;;;;;11.57;3.33;;;;;;;;;;4898502;29;20053;-74
2022/07/10 00:38:32;;;;;;;10.90;3.50;;;;;;;;;;4898597;29;20489;-75
2022/07/10 00:41:02;;;;;;;10.73;3.08;;;;;;;;;;4865229;29;20410;-74
2022/07/10 00:43:54;;;;;;;8.05;3.30;;;;;;;;;;4898433;29;20052;-74
2022/07/10 00:46:29;;;;;;;7.93;3.05;;;;;;;;;;4849858;29;20553;-74
2022/07/10 00:49:00;;;;;;;7.90;3.33;;;;;;;;;;4880475;29;20052;-74
2022/07/10 00:51:31;;;;;;;11.20;3.03;;;;;;;;;;4865230;29;20076;-75
2022/07/10 00:54:01;;;;;;;15.25;3.40;;;;;;;;;;4880197;29;20057;-75
2022/07/10 00:56:31;;;;;;;11.23;2.97;;;;;;;;;;4898255;29;20056;-75
2022/07/10 00:59:01;;;;;;;6.13;3.05;;;;;;;;;;4895509;29;20060;-75
2022/07/10 01:01:33;;;;;;;8.93;3.10;;;;;;;;;;4898132;29;20052;-76
2022/07/10 01:04:04;;;;;;;8.98;3.05;;;;;;;;;;4864843;29;20061;-75
2022/07/10 01:06:33;;;;;;;8.23;3.03;;;;;;;;;;4898083;29;20044;-76
2022/07/10 01:09:04;;;;;;;7.18;3.00;;;;;;;;;;4897686;29;20059;-75
2022/07/10 01:11:34;;;;;;;11.82;3.00;;;;;;;;;;4897802;29;20052;-75
2022/07/10 01:14:05;;;;;;;11.18;2.92;;;;;;;;;;4880487;29;20056;-74
2022/07/10 01:16:35;;;;;;;9.43;3.10;;;;;;;;;;4830428;29;20541;-75
2022/07/10 01:19:06;;;;;;;8.63;3.15;;;;;;;;;;4876700;29;20073;-75
2022/07/10 01:21:37;;;;;;;7.15;3.03;;;;;;;;;;4845454;29;20064;-75
2022/07/10 01:24:09;;;;;;;7.15;3.35;;;;;;;;;;4860834;29;21179;-75
2022/07/10 01:26:42;;;;;;;8.82;3.47;;;;;;;;;;4876671;29;20061;-76
2022/07/10 01:29:13;;;;;;;6.78;3.13;;;;;;;;;;4845515;29;20053;-76
2022/07/10 01:31:42;;;;;;;6.80;2.80;;;;;;;;;;4860711;29;20060;-76
2022/07/10 01:34:13;;;;;;;8.85;2.95;;;;;;;;;;4845722;29;20068;-76
2022/07/10 01:36:43;;;;;;;8.25;2.83;;;;;;;;;;4845230;29;20053;-75
2022/07/10 01:39:13;;;;;;;11.35;2.83;;;;;;;;;;4860919;29;20384;-76
2022/07/10 01:41:43;;;;;;;6.55;2.85;;;;;;;;;;4876422;29;20517;-75
2022/07/10 01:44:13;;;;;;;14.13;3.17;;;;;;;;;;4876130;29;20064;-76
2022/07/10 01:46:45;;;;;;;7.15;3.22;;;;;;;;;;4829405;29;20192;-76
2022/07/10 01:49:16;;;;;;;9.10;3.13;;;;;;;;;;4860480;29;20064;-76
2022/07/10 01:51:46;;;;;;;8.77;3.33;;;;;;;;;;4876043;29;20061;-76
2022/07/10 01:54:16;;;;;;;9.93;3.08;;;;;;;;;;4885290;29;20055;-76
2022/07/10 01:56:46;;;;;;;9.15;3.22;;;;;;;;;;4879403;29;20056;-76
2022/07/10 01:59:16;;;;;;;8.23;3.58;;;;;;;;;;4879159;29;20063;-77
2022/07/10 02:01:46;;;;;;;6.72;2.78;;;;;;;;;;4897427;29;20060;-76
2022/07/10 02:07:04;;;;;;;8.07;2.85;;;;;;;;;;4894994;29;20405;-76
2022/07/10 02:09:34;;;;;;;12.50;3.35;;;;;;;;;;4879071;29;20064;-76
2022/07/10 02:12:06;;;;;;;5.78;2.83;;;;;;;;;;4879030;29;20078;-78
2022/07/10 02:14:36;;;;;;;6.65;2.70;;;;;;;;;;4879029;29;20092;-75
2022/07/10 02:17:08;;;;;;;10.48;3.10;;;;;;;;;;4896856;29;20056;-75
2022/07/10 02:19:38;;;;;;;6.40;2.88;;;;;;;;;;4894413;29;20065;-75
2022/07/10 02:22:08;;;;;;;7.50;3.28;;;;;;;;;;4848622;29;20525;-75
2022/07/10 02:24:38;;;;;;;7.32;2.97;;;;;;;;;;4863810;29;20060;-76
2022/07/10 02:27:08;;;;;;;5.75;2.85;;;;;;;;;;4896724;29;20413;-76
2022/07/10 02:29:38;;;;;;;9.02;3.80;;;;;;;;;;4878580;29;20048;-77
2022/07/10 02:32:08;;;;;;;8.95;3.25;;;;;;;;;;4848503;29;20060;-76
2022/07/10 02:34:38;;;;;;;8.40;3.00;;;;;;;;;;4878660;29;20055;-77
2022/07/10 02:37:08;;;;;;;10.43;2.95;;;;;;;;;;4878973;29;20417;-77
2022/07/10 02:39:38;;;;;;;6.15;3.30;;;;;;;;;;4848516;29;20052;-77
2022/07/10 02:42:08;;;;;;;8.93;3.72;;;;;;;;;;4848184;29;20486;-77
2022/07/10 02:44:38;;;;;;;7.20;3.05;;;;;;;;;;4878703;29;20075;-77
2022/07/10 02:47:08;;;;;;;10.38;3.75;;;;;;;;;;4878476;29;20060;-76
2022/07/10 02:49:38;;;;;;;7.47;3.53;;;;;;;;;;4878365;29;20531;-76
2022/07/10 02:52:08;;;;;;;7.20;3.30;;;;;;;;;;4878572;29;20433;-76
2022/07/10 02:54:39;;;;;;;9.02;2.72;;;;;;;;;;4878950;29;20057;-75
2022/07/10 02:57:09;;;;;;;8.82;3.15;;;;;;;;;;4878322;29;20072;-75
2022/07/10 02:59:39;;;;;;;6.10;3.45;;;;;;;;;;4896105;29;20052;-75
2022/07/10 03:02:09;;;;;;;9.95;3.47;;;;;;;;;;4895874;29;20052;-77
2022/07/10 03:04:39;;;;;;;12.98;3.28;;;;;;;;;;4878379;29;20059;-76
2022/07/10 03:07:09;;;;;;;7.25;2.80;;;;;;;;;;4878351;29;20048;-76
2022/07/10 03:09:40;;;;;;;7.53;3.65;;;;;;;;;;4864049;29;20053;-76
2022/07/10 03:12:09;;;;;;;7.40;2.97;;;;;;;;;;4847490;29;20052;-77
2022/07/10 03:14:39;;;;;;;5.72;3.05;;;;;;;;;;4893832;29;20059;-76
2022/07/10 03:17:09;;;;;;;5.38;2.75;;;;;;;;;;4878433;29;20064;-76
2022/07/10 03:19:40;;;;;;;11.05;2.90;;;;;;;;;;4894191;29;20059;-76
2022/07/10 03:22:10;;;;;;;5.35;2.78;;;;;;;;;;4847380;29;20417;-75
2022/07/10 03:24:40;;;;;;;7.07;2.75;;;;;;;;;;4878095;29;20513;-76
2022/07/10 03:27:10;;;;;;;9.75;3.25;;;;;;;;;;4878219;29;20842;-76
2022/07/10 03:29:41;;;;;;;7.95;3.15;;;;;;;;;;4896165;29;20048;-76
2022/07/10 03:32:11;;;;;;;10.02;2.83;;;;;;;;;;4878015;29;20065;-75
2022/07/10 03:34:41;;;;;;;12.35;3.28;;;;;;;;;;4893638;29;20048;-77
2022/07/10 03:37:11;;;;;;;16.38;3.55;;;;;;;;;;4878105;29;20615;-76
2022/07/10 03:39:41;;;;;;;6.53;3.17;;;;;;;;;;4862772;29;20525;-75
2022/07/10 03:42:10;;;;;;;6.57;3.05;;;;;;;;;;4862774;29;20686;-77
2022/07/10 03:44:41;;;;;;;11.48;3.22;;;;;;;;;;4878152;29;20049;-76
2022/07/10 03:47:11;;;;;;;9.60;3.17;;;;;;;;;;4893694;29;20069;-77
2022/07/10 03:49:42;;;;;;;6.28;3.22;;;;;;;;;;4863772;29;20056;-77
2022/07/10 03:52:11;;;;;;;7.15;3.08;;;;;;;;;;4877993;29;20065;-77
2022/07/10 03:54:41;;;;;;;8.80;2.88;;;;;;;;;;4893431;29;20060;-77
2022/07/10 04:00:00;;;;;;;12.38;3.40;;;;;;;;;;4862356;29;20049;-76
2022/07/10 04:02:39;;;;;;;9.73;3.15;;;;;;;;;;4895606;29;20068;-76
2022/07/10 04:05:10;;;;;;;10.57;3.00;;;;;;;;;;4895776;29;20585;-77
2022/07/10 04:07:40;;;;;;;10.32;3.30;;;;;;;;;;4877879;29;20060;-76
2022/07/10 04:10:10;;;;;;;10.30;3.33;;;;;;;;;;4898558;29;20056;-77
2022/07/10 04:12:41;;;;;;;9.43;3.47;;;;;;;;;;4896765;29;20702;-76
2022/07/10 04:15:11;;;;;;;8.57;3.70;;;;;;;;;;4896872;29;20067;-76
2022/07/10 04:17:42;;;;;;;12.93;3.42;;;;;;;;;;4899194;29;20063;-76
2022/07/10 04:20:12;;;;;;;9.23;3.83;;;;;;;;;;4881341;29;20060;-77
2022/07/10 04:22:43;;;;;;;10.25;3.25;;;;;;;;;;4880997;29;20053;-76
2022/07/10 04:25:14;;;;;;;10.75;3.42;;;;;;;;;;4881734;29;20061;-76
2022/07/10 04:27:43;;;;;;;9.60;3.53;;;;;;;;;;4850070;29;20057;-76
2022/07/10 04:30:13;;;;;;;9.05;3.58;;;;;;;;;;4866383;29;20048;-76
2022/07/10 04:32:44;;;;;;;8.05;3.22;;;;;;;;;;4865578;29;20079;-76
2022/07/10 04:35:14;;;;;;;8.07;3.60;;;;;;;;;;4849816;29;20521;-76
2022/07/10 04:37:44;;;;;;;10.45;3.53;;;;;;;;;;4898526;29;20052;-77
2022/07/10 04:40:14;;;;;;;9.73;3.60;;;;;;;;;;4880613;29;20520;-76
2022/07/10 04:42:44;;;;;;;12.80;3.58;;;;;;;;;;4898552;29;20044;-76
2022/07/10 04:45:14;;;;;;;8.80;3.30;;;;;;;;;;4898684;29;20056;-76
2022/07/10 04:47:44;;;;;;;12.27;4.00;;;;;;;;;;4898248;29;20049;-76
2022/07/10 04:50:15;;;;;;;15.32;3.53;;;;;;;;;;4898254;29;20044;-76
2022/07/10 04:52:45;;;;;;;9.57;3.80;;;;;;;;;;4880571;29;20052;-76
2022/07/10 04:55:15;;;;;;;11.57;3.88;;;;;;;;;;4865009;29;20051;-77
2022/07/10 04:57:44;;;;;;;13.15;3.53;;;;;;;;;;4865336;29;20063;-75
2022/07/10 05:00:15;;;;;;;9.25;3.70;;;;;;;;;;4898319;29;20052;-76
2022/07/10 05:02:46;;;;;;;10.60;3.40;;;;;;;;;;4897936;29;20612;-76
2022/07/10 05:05:16;;;;;;;7.32;3.35;;;;;;;;;;4865382;29;20052;-76
2022/07/10 05:07:46;;;;;;;7.45;3.50;;;;;;;;;;4898118;29;20047;-76
2022/07/10 05:10:16;;;;;;;10.48;3.75;;;;;;;;;;4897885;29;20057;-76
2022/07/10 05:12:46;;;;;;;8.18;3.67;;;;;;;;;;4849443;29;20096;-76
2022/07/10 05:15:16;;;;;;;9.68;3.67;;;;;;;;;;4864748;29;20084;-76
2022/07/10 05:17:48;;;;;;;8.85;3.35;;;;;;;;;;4864974;29;20055;-76
2022/07/10 05:20:18;;;;;;;8.82;3.90;;;;;;;;;;4879206;29;20056;-75
2022/07/10 05:22:48;;;;;;;7.22;3.60;;;;;;;;;;4880075;29;20053;-76
2022/07/10 05:25:19;;;;;;;9.50;3.88;;;;;;;;;;4895529;29;20048;-75
2022/07/10 05:27:49;;;;;;;8.27;3.60;;;;;;;;;;4864568;29;20064;-76
2022/07/10 05:30:19;;;;;;;9.05;3.78;;;;;;;;;;4849105;29;20064;-76
2022/07/10 05:32:49;;;;;;;9.27;3.75;;;;;;;;;;4879932;29;20049;-75
2022/07/10 05:35:19;;;;;;;6.75;3.83;;;;;;;;;;4879824;29;20056;-76
2022/07/10 05:37:49;;;;;;;14.40;4.30;;;;;;;;;;4880258;29;20069;-75
2022/07/10 05:40:19;;;;;;;11.48;3.63;;;;;;;;;;4895605;29;20060;-75
2022/07/10 05:42:50;;;;;;;10.40;3.60;;;;;;;;;;4897621;29;20405;-75
2022/07/10 05:45:20;;;;;;;8.73;3.63;;;;;;;;;;4864118;29;20056;-76
2022/07/10 05:47:50;;;;;;;7.35;3.78;;;;;;;;;;4879436;29;20056;-75
2022/07/10 05:50:20;;;;;;;11.48;3.60;;;;;;;;;;4897090;29;20055;-75
2022/07/10 05:52:50;;;;;;;6.65;3.40;;;;;;;;;;4895072;29;20056;-75
2022/07/10 05:55:20;;;;;;;6.50;3.28;;;;;;;;;;4864143;29;20060;-75
2022/07/10 05:57:50;;;;;;;10.23;3.30;;;;;;;;;;4879382;29;20059;-75
2022/07/10 06:00:20;;;;;;;7.75;3.63;;;;;;;;;;4834003;29;20071;-75
2022/07/10 06:02:51;;;;;;;8.05;3.83;;;;;;;;;;4864646;29;20586;-75
2022/07/10 06:05:21;;;;;;;13.43;3.80;;;;;;;;;;4803831;29;20056;-76
2022/07/10 06:07:52;;;;;;;11.07;3.55;;;;;;;;;;4849277;29;20060;-75
2022/07/10 06:10:22;;;;;;;6.93;3.03;;;;;;;;;;4833887;29;20057;-75
2022/07/10 06:12:52;;;;;;;7.70;3.35;;;;;;;;;;4849715;29;20063;-75
2022/07/10 06:15:22;;;;;;;9.07;3.63;;;;;;;;;;4894636;29;20061;-76
2022/07/10 06:17:52;;;;;;;8.57;4.13;;;;;;;;;;4848268;29;20061;-75
2022/07/10 06:20:22;;;;;;;7.85;3.63;;;;;;;;;;4863801;29;21112;-75
2022/07/10 06:22:52;;;;;;;9.70;3.63;;;;;;;;;;4863581;29;20052;-75
2022/07/10 06:25:22;;;;;;;6.88;3.20;;;;;;;;;;4878723;29;20429;-75
2022/07/10 06:27:52;;;;;;;7.22;3.63;;;;;;;;;;4863799;29;20068;-76
2022/07/10 06:30:22;;;;;;;7.28;3.03;;;;;;;;;;4896225;29;21096;-75
2022/07/10 06:32:52;;;;;;;9.15;3.63;;;;;;;;;;4863249;29;20060;-76
2022/07/10 06:35:22;;;;;;;9.50;3.50;;;;;;;;;;4863666;29;20068;-75
2022/07/10 06:37:52;;;;;;;6.38;3.55;;;;;;;;;;4896578;29;20591;-75
2022/07/10 06:40:22;;;;;;;7.88;3.95;;;;;;;;;;4896498;29;20044;-76
2022/07/10 06:42:52;;;;;;;5.93;3.15;;;;;;;;;;4878679;29;20052;-76
2022/07/10 06:45:22;;;;;;;7.82;3.08;;;;;;;;;;4896512;29;20053;-76
2022/07/10 06:48:01;;;;;;;7.82;3.40;;;;;;;;;;4896482;29;20044;-76
2022/07/10 06:50:34;;;;;;;13.05;3.42;;;;;;;;;;4894021;29;20063;-75
2022/07/10 06:53:05;;;;;;;7.00;3.10;;;;;;;;;;4878621;29;20528;-76
2022/07/10 06:55:36;;;;;;;8.05;3.47;;;;;;;;;;4878239;29;20494;-76
2022/07/10 06:58:05;;;;;;;7.72;2.90;;;;;;;;;;4878734;29;20063;-75
2022/07/10 07:00:35;;;;;;;6.63;3.05;;;;;;;;;;4848159;29;20417;-76
2022/07/10 07:03:05;;;;;;;11.55;3.80;;;;;;;;;;4878769;29;20437;-76
2022/07/10 07:05:36;;;;;;;7.72;3.20;;;;;;;;;;4895025;29;20045;-76
2022/07/10 07:08:06;;;;;;;9.93;3.78;;;;;;;;;;4894131;29;20498;-76
2022/07/10 07:10:36;;;;;;;8.55;3.20;;;;;;;;;;4895894;29;20060;-76
2022/07/10 07:13:09;;;;;;;7.35;3.63;;;;;;;;;;4896143;29;20049;-76
2022/07/10 07:15:41;;;;;;;;;;;;;;;;;;4834111;29;20521;-76
2022/07/10 07:18:12;;;;;;;7.75;2.95;;;;;;;;;;4848408;29;20331;-75
2022/07/10 07:23:31;;;;;;;7.75;3.25;;;;;;;;;;4896199;29;20056;-75
2022/07/10 07:26:02;;;;;;;9.25;3.33;;;;;;;;;;4847320;29;20052;-76
2022/07/10 07:28:33;;;;;;;6.70;3.17;;;;;;;;;;4894888;29;20045;-75
2022/07/10 07:31:03;;;;;;;10.40;3.90;;;;;;;;;;4878564;29;20116;-76
2022/07/10 07:33:40;;;;;;;8.02;3.80;;;;;;;;;;4896191;29;20055;-75
2022/07/10 07:36:10;;;;;;;8.10;3.25;;;;;;;;;;4878202;29;20061;-75
2022/07/10 07:38:41;;;;;;;8.40;3.13;;;;;;;;;;4896114;29;20508;-76
2022/07/10 07:41:11;;;;;;;7.82;3.40;;;;;;;;;;4895714;29;20049;-75
2022/07/10 07:43:41;;;;;;;6.78;3.50;;;;;;;;;;4863685;29;20048;-75
2022/07/10 07:46:11;;;;;;;7.20;3.30;;;;;;;;;;4881759;29;20060;-76
2022/07/10 07:48:42;;;;;;;9.80;3.20;;;;;;;;;;4866609;29;20524;-75
2022/07/10 07:51:13;;;;;;;6.68;3.22;;;;;;;;;;4899489;29;20053;-75
2022/07/10 07:53:43;;;;;;;8.55;3.13;;;;;;;;;;4850730;29;20059;-74
2022/07/10 07:56:13;;;;;;;6.43;3.20;;;;;;;;;;4899103;29;20049;-75
2022/07/10 07:58:45;;;;;;;6.60;3.50;;;;;;;;;;4899581;29;20393;-74
2022/07/10 08:01:15;;;;;;;9.02;3.58;;;;;;;;;;4866027;29;20060;-75
2022/07/10 08:03:44;;;;;;;6.03;3.08;;;;;;;;;;4881558;29;20060;-74
2022/07/10 08:06:34;;;;;;;10.45;3.58;;;;;;;;;;4884851;29;20063;-74
2022/07/10 08:09:04;;;;;;;7.15;3.40;;;;;;;;;;4899149;29;20056;-75
2022/07/10 08:11:35;;;;;;;7.88;3.42;;;;;;;;;;4899060;29;20060;-74
2022/07/10 08:14:04;;;;;;;5.30;2.97;;;;;;;;;;4865412;29;20057;-74
2022/07/10 08:16:34;;;;;;;10.85;4.00;;;;;;;;;;4864997;29;20533;-74
2022/07/10 08:19:04;;;;;;;10.52;3.05;;;;;;;;;;4896582;29;20071;-74
2022/07/10 08:21:34;;;;;;;10.93;3.10;;;;;;;;;;4896518;29;20045;-75
2022/07/10 08:24:05;;;;;;;6.32;3.20;;;;;;;;;;4881437;29;20056;-74
2022/07/10 08:26:35;;;;;;;8.45;3.33;;;;;;;;;;4896225;29;20060;-75
2022/07/10 08:29:05;;;;;;;6.80;2.75;;;;;;;;;;4896471;29;20052;-75
2022/07/10 08:31:35;;;;;;;7.68;3.13;;;;;;;;;;4896412;29;20142;-74
2022/07/10 08:34:05;;;;;;;8.10;3.35;;;;;;;;;;4896903;29;20060;-75
2022/07/10 08:36:35;;;;;;;11.20;3.35;;;;;;;;;;4897212;29;20056;-75
2022/07/10 08:39:10;;;;;;;9.20;3.63;;;;;;;;;;4897091;29;20085;-75
2022/07/10 08:41:40;;;;;;;7.13;3.40;;;;;;;;;;4896624;29;20057;-75
2022/07/10 08:44:11;;;;;;;7.60;3.28;;;;;;;;;;4896105;29;20059;-75
2022/07/10 08:46:41;;;;;;;6.88;3.30;;;;;;;;;;4833966;29;20052;-75
2022/07/10 08:49:13;;;;;;;9.30;3.40;;;;;;;;;;4880334;29;20501;-75
2022/07/10 08:52:11;;;;;;;9.27;3.03;;;;;;;;;;4891047;29;20138;-75
2022/07/10 08:54:41;;;;;;;7.40;3.17;;;;;;;;;;4880610;29;20128;-75
2022/07/10 08:57:11;;;;;;;9.45;3.67;;;;;;;;;;4880873;29;20065;-75
2022/07/10 08:59:41;;;;;;;8.77;3.53;;;;;;;;;;4880581;29;20060;-75
2022/07/10 09:02:12;;;;;;;6.97;3.22;;;;;;;;;;4880906;29;20059;-75
2022/07/10 09:04:42;;;;;;;7.28;3.47;;;;;;;;;;4898293;29;20068;-76
2022/07/10 09:07:12;;;;;;;8.52;3.13;;;;;;;;;;4898152;29;20052;-76
2022/07/10 09:09:55;;;;;;;8.50;3.53;;;;;;;;;;4898230;29;20069;-75
2022/07/10 09:12:26;;;;;;;7.38;3.20;;;;;;;;;;4880041;29;20536;-75
2022/07/10 09:15:16;;;;;;;8.52;3.65;;;;;;;;;;4897885;29;20056;-75
2022/07/10 09:17:55;;;;;;;8.00;3.63;;;;;;;;;;4895591;29;20510;-75
2022/07/10 09:20:27;;;;;;;6.28;3.08;;;;;;;;;;4865749;29;20055;-75
2022/07/10 09:23:18;;;;;;;6.25;2.83;;;;;;;;;;4897946;29;20050;-75
2022/07/10 09:25:50;;;;;;;6.13;2.90;;;;;;;;;;4858155;29;20493;-75
2022/07/10 09:28:23;;;;;;;5.55;2.75;;;;;;;;;;4842663;29;20057;-75
2022/07/10 09:30:53;;;;;;;5.38;2.70;;;;;;;;;;4813390;29;20058;-75
2022/07/10 09:33:27;;;;;;;8.07;3.35;;;;;;;;;;4827936;29;20053;-75
2022/07/10 09:36:05;;;;;;;8.48;2.97;;;;;;;;;;4857915;29;20057;-75
2022/07/10 09:38:45;;;;;;;7.57;2.90;;;;;;;;;;4812330;29;20057;-74
2022/07/10 09:41:23;;;;;;;6.68;3.15;;;;;;;;;;4812344;29;20060;-74
2022/07/10 09:43:58;;;;;;;10.07;4.50;;;;;;;;;;4857742;29;20608;-74
2022/07/10 09:46:40;;;;;;;8.27;3.58;;;;;;;;;;4858046;29;20053;-75
2022/07/10 09:49:13;;;;;;;6.72;3.28;;;;;;;;;;4857109;29;20073;-75
2022/07/10 09:51:45;;;;;;;11.38;3.40;;;;;;;;;;4812343;29;20399;-74
2022/07/10 09:54:18;;;;;;;7.32;3.35;;;;;;;;;;4842056;29;20057;-74
2022/07/10 09:56:52;;;;;;;6.80;3.03;;;;;;;;;;4826763;29;20064;-75
2022/07/10 09:59:23;;;;;;;7.68;3.42;;;;;;;;;;4857527;29;20549;-75
2022/07/10 10:01:53;;;;;;;8.60;3.50;;;;;;;;;;4812199;29;20073;-75
2022/07/10 10:04:24;;;;;;;8.60;3.55;;;;;;;;;;4897012;29;20040;-76
2022/07/10 10:07:00;;;;;;;7.95;3.35;;;;;;;;;;4894228;29;20049;-76
2022/07/10 10:09:41;;;;;;;6.28;3.08;;;;;;;;;;4863884;29;20055;-76
2022/07/10 10:12:27;;;;;;;8.15;3.20;;;;;;;;;;4879467;29;20076;-78
2022/07/10 10:14:59;;;;;;;5.88;2.97;;;;;;;;;;4879304;29;20506;-76
2022/07/10 10:17:30;;;;;;;;;;;;;;;;;;4880303;29;20057;-77
2022/07/10 10:22:50;;;;;;;7.40;3.30;;;;;;;;;;4869176;29;20060;-77
2022/07/10 10:25:21;;;;;;;7.05;3.53;;;;;;;;;;4896668;29;20072;-77
2022/07/10 10:27:51;;;;;;;10.73;3.80;;;;;;;;;;4863131;29;20056;-77
2022/07/10 10:30:22;;;;;;;10.27;4.63;;;;;;;;;;4863629;29;20056;-77
2022/07/10 10:32:52;;;;;;;12.07;4.10;;;;;;;;;;4829452;29;20057;-76
2022/07/10 10:35:49;;;;;;;8.88;4.10;;;;;;;;;;4829847;29;20060;-77
2022/07/10 10:38:20;;;;;;;9.77;3.90;;;;;;;;;;4875429;29;20076;-77
2022/07/10 10:40:50;;;;;;;7.03;3.88;;;;;;;;;;4859712;29;20064;-77
2022/07/10 10:43:23;;;;;;;10.60;3.70;;;;;;;;;;4875171;29;20064;-78
2022/07/10 10:45:53;;;;;;;9.10;4.65;;;;;;;;;;4844462;29;20065;-77
2022/07/10 10:48:23;;;;;;;9.00;4.10;;;;;;;;;;4874962;29;20064;-77
2022/07/10 10:51:08;;;;;;;9.35;3.97;;;;;;;;;;4875341;29;20061;-78
2022/07/10 10:53:38;;;;;;;10.82;4.38;;;;;;;;;;4875399;29;20486;-77
2022/07/10 10:56:14;;;;;;;11.23;5.18;;;;;;;;;;4875420;29;20060;-77
2022/07/10 10:58:46;;;;;;;13.30;5.30;;;;;;;;;;4874931;29;20057;-77
2022/07/10 11:01:21;;;;;;;11.90;5.13;;;;;;;;;;4874887;29;20057;-77
2022/07/10 11:04:10;;;;;;;8.60;4.47;;;;;;;;;;4859381;29;20053;-77
2022/07/10 11:06:53;;;;;;;11.35;4.85;;;;;;;;;;4875184;29;20057;-77
2022/07/10 11:09:33;;;;;;;9.40;4.28;;;;;;;;;;4875942;29;20437;-77
2022/07/10 11:12:05;;;;;;;14.50;4.82;;;;;;;;;;4879026;29;20057;-77
2022/07/10 11:14:37;;;;;;;12.68;5.68;;;;;;;;;;4863103;29;20056;-77
2022/07/10 11:17:09;;;;;;;17.13;5.85;;;;;;;;;;4894908;29;20044;-77
2022/07/10 11:19:40;;;;;;;16.20;5.60;;;;;;;;;;4899767;29;20059;-77
2022/07/10 11:22:32;;;;;;;14.98;6.10;;;;;;;;;;4898987;29;20478;-77
2022/07/10 11:25:34;;;;;;;11.85;5.55;;;;;;;;;;4883461;29;20068;-77
2022/07/10 11:28:10;;;;;;;12.30;5.28;;;;;;;;;;4881804;29;20051;-77
2022/07/10 11:30:54;;;;;;;12.80;6.72;;;;;;;;;;4822238;29;20053;-77
2022/07/10 11:33:26;;;;;;;12.20;6.20;;;;;;;;;;4899884;29;20059;-77
2022/07/10 11:35:56;;;;;;;14.25;5.55;;;;;;;;;;4897684;29;20060;-77
2022/07/10 11:38:27;;;;;;;12.57;6.05;;;;;;;;;;4898910;29;20052;-77
2022/07/10 11:40:57;;;;;;;14.95;5.90;;;;;;;;;;4866816;29;20064;-77
2022/07/10 11:43:27;;;;;;;9.95;5.07;;;;;;;;;;4882412;29;20056;-76
2022/07/10 11:46:24;;;;;;;14.77;5.47;;;;;;;;;;4880088;29;20056;-76
2022/07/10 11:48:56;;;;;;;11.10;5.80;;;;;;;;;;4878634;29;20061;-76
2022/07/10 11:51:30;;;;;;;12.20;5.90;;;;;;;;;;4847193;29;20074;-76
2022/07/10 11:54:03;;;;;;;11.32;6.28;;;;;;;;;;4846953;29;20061;-75
2022/07/10 11:56:36;;;;;;;12.13;6.28;;;;;;;;;;4847056;29;20068;-75
2022/07/10 11:59:08;;;;;;;12.90;6.53;;;;;;;;;;4832534;29;20049;-76
2022/07/10 12:01:46;;;;;;;12.65;6.38;;;;;;;;;;4801662;29;20571;-76
2022/07/10 12:04:25;;;;;;;15.90;6.75;;;;;;;;;;4845660;29;20050;-75
2022/07/10 12:06:56;;;;;;;12.18;6.10;;;;;;;;;;4855674;29;20049;-75
2022/07/10 12:09:25;;;;;;;13.32;6.10;;;;;;;;;;4825547;29;20062;-74
2022/07/10 12:12:00;;;;;;;16.05;5.85;;;;;;;;;;4825447;29;20049;-73
2022/07/10 12:14:32;;;;;;;13.07;5.55;;;;;;;;;;4840568;29;20058;-77
2022/07/10 12:17:12;;;;;;;10.48;6.20;;;;;;;;;;4795272;29;20073;-75
2022/07/10 12:19:43;;;;;;;17.08;7.45;;;;;;;;;;4840579;29;20070;-76
2022/07/10 12:22:13;;;;;;;20.10;9.23;;;;;;;;;;4825112;29;20046;-75
2022/07/10 12:24:44;;;;;;;13.82;7.22;;;;;;;;;;4827891;29;20053;-76
2022/07/10 12:27:40;;;;;;;14.05;6.68;;;;;;;;;;4846669;29;20057;-75
2022/07/10 12:30:10;;;;;;;29.35;13.60;;;;;;;;;;4846263;29;20053;-74
2022/07/10 12:32:40;;;;;;;28.73;16.33;;;;;;;;;;4861962;29;20056;-73
2022/07/10 12:35:14;;;;;;;14.38;8.07;;;;;;;;;;4869580;29;20455;-73
2022/07/10 12:37:49;;;;;;;19.45;9.15;;;;;;;;;;4836612;29;20064;-73
2022/07/10 12:40:33;;;;;;;18.38;8.95;;;;;;;;;;4880635;29;20056;-74
2022/07/10 12:43:05;;;;;;;17.08;9.05;;;;;;;;;;4834617;29;20053;-74
2022/07/10 12:45:35;;;;;;;16.38;8.23;;;;;;;;;;4880566;29;20414;-73
2022/07/10 12:48:06;;;;;;;20.75;7.32;;;;;;;;;;4850437;29;20048;-74
2022/07/10 12:50:37;;;;;;;11.90;6.28;;;;;;;;;;4880824;29;20052;-75
2022/07/10 12:53:14;;;;;;;16.00;6.82;;;;;;;;;;4896403;29;20060;-72
2022/07/10 12:55:46;;;;;;;15.38;6.82;;;;;;;;;;4896341;29;20056;-73
2022/07/10 12:58:17;;;;;;;16.92;6.82;;;;;;;;;;4880519;29;20072;-72
2022/07/10 13:00:49;;;;;;;11.38;5.97;;;;;;;;;;4865259;29;20057;-72
2022/07/10 13:03:24;;;;;;;13.57;5.60;;;;;;;;;;4880466;29;20045;-75
2022/07/10 13:05:56;;;;;;;12.50;5.18;;;;;;;;;;4896195;29;20059;-75
2022/07/10 13:08:28;;;;;;;10.70;5.13;;;;;;;;;;4877008;29;20060;-73
2022/07/10 13:10:59;;;;;;;13.77;5.05;;;;;;;;;;4861250;29;20551;-75
2022/07/10 13:13:29;;;;;;;8.88;4.32;;;;;;;;;;4861476;29;20054;-74
2022/07/10 13:16:00;;;;;;;10.82;4.10;;;;;;;;;;4876678;29;20056;-73
2022/07/10 13:18:30;;;;;;;8.52;3.35;;;;;;;;;;4845804;29;20068;-73
2022/07/10 13:21:02;;;;;;;6.68;3.00;;;;;;;;;;4861600;29;20057;-75
2022/07/10 13:23:32;;;;;;;7.28;3.22;;;;;;;;;;4830607;29;20056;-73
2022/07/10 13:26:03;;;;;;;7.57;3.33;;;;;;;;;;4861381;29;20056;-75
2022/07/10 13:28:34;;;;;;;13.52;3.45;;;;;;;;;;4875823;29;20098;-74
2022/07/10 13:31:06;;;;;;;8.30;3.25;;;;;;;;;;4860834;29;20052;-75
2022/07/10 13:33:37;;;;;;;7.32;3.60;;;;;;;;;;4861371;29;20053;-74
2022/07/10 13:36:07;;;;;;;5.90;2.22;;;;;;;;;;4842325;29;20050;-73
2022/07/10 13:38:37;;;;;;;7.07;2.30;;;;;;;;;;4860910;29;20061;-74
2022/07/10 13:41:08;;;;;;;7.53;2.38;;;;;;;;;;4878748;29;20059;-73
2022/07/10 13:43:39;;;;;;;5.28;1.70;;;;;;;;;;4895319;29;20052;-71
2022/07/10 13:46:09;;;;;;;3.88;1.88;;;;;;;;;;4833985;29;20064;-73
2022/07/10 13:48:39;;;;;;;8.10;2.50;;;;;;;;;;4895286;29;20460;-73
2022/07/10 13:51:10;;;;;;;7.32;1.65;;;;;;;;;;4834138;29;20068;-72
2022/07/10 13:53:40;;;;;;;6.32;1.85;;;;;;;;;;4864508;29;20065;-72
2022/07/10 13:56:11;;;;;;;5.65;2.13;;;;;;;;;;4879330;29;20056;-72
2022/07/10 13:58:44;;;;;;;6.05;1.88;;;;;;;;;;4894952;29;20048;-73
2022/07/10 14:01:14;;;;;;;5.43;1.92;;;;;;;;;;4864430;29;20060;-72
2022/07/10 14:03:45;;;;;;;5.47;2.80;;;;;;;;;;4894919;29;20441;-72
2022/07/10 14:06:16;;;;;;;8.65;2.33;;;;;;;;;;4864663;29;20057;-72
2022/07/10 14:08:46;;;;;;;3.65;1.60;;;;;;;;;;4894544;29;20067;-72
2022/07/10 14:11:17;;;;;;;4.88;1.50;;;;;;;;;;4863553;29;20052;-71
2022/07/10 14:13:48;;;;;;;5.32;1.20;;;;;;;;;;4870113;29;20063;-70
2022/07/10 14:16:18;;;;;;;3.92;1.60;;;;;;;;;;4879506;29;20513;-70
2022/07/10 14:18:49;;;;;;;4.55;1.52;;;;;;;;;;4818801;29;20053;-72
2022/07/10 14:21:19;;;;;;;6.57;1.55;;;;;;;;;;4864738;29;20067;-72
2022/07/10 14:23:51;;;;;;;4.53;1.30;;;;;;;;;;4864363;29;20048;-71
2022/07/10 14:26:21;;;;;;;7.75;1.38;;;;;;;;;;4863754;29;20052;-71
2022/07/10 14:28:51;;;;;;;4.53;1.30;;;;;;;;;;4878988;29;20541;-72
2022/07/10 14:31:22;;;;;;;4.30;1.33;;;;;;;;;;4878867;29;20540;-72
2022/07/10 14:33:52;;;;;;;3.92;1.30;;;;;;;;;;4863538;29;20084;-72
2022/07/10 14:36:27;;;;;;;4.03;1.40;;;;;;;;;;4863678;29;20059;-73
2022/07/10 14:38:58;;;;;;;5.38;1.40;;;;;;;;;;4878828;29;20494;-72
2022/07/10 14:41:28;;;;;;;4.07;1.05;;;;;;;;;;4896599;29;20063;-72
2022/07/10 14:43:58;;;;;;;3.53;1.42;;;;;;;;;;4878456;29;20421;-70
2022/07/10 14:46:28;;;;;;;3.20;1.30;;;;;;;;;;4879424;29;20060;-71
2022/07/10 14:48:58;;;;;;;4.65;1.25;;;;;;;;;;4878548;29;20064;-71
2022/07/10 14:51:29;;;;;;;4.07;1.25;;;;;;;;;;4894461;29;20061;-72
2022/07/10 14:53:59;;;;;;;9.32;1.58;;;;;;;;;;4818130;29;20423;-72
2022/07/10 14:56:29;;;;;;;4.78;1.95;;;;;;;;;;4894399;29;20498;-68
2022/07/10 14:58:59;;;;;;;4.88;1.30;;;;;;;;;;4879081;29;20057;-72
2022/07/10 15:01:44;;;;;;;4.68;1.25;;;;;;;;;;4881640;29;20056;-72
2022/07/10 15:04:14;;;;;;;3.63;1.38;;;;;;;;;;4896250;29;20075;-72
2022/07/10 15:06:47;;;;;;;3.10;1.40;;;;;;;;;;4863736;29;20051;-69
2022/07/10 15:09:17;;;;;;;8.52;1.40;;;;;;;;;;4818129;29;20064;-72
2022/07/10 15:11:46;;;;;;;5.28;1.55;;;;;;;;;;4847925;29;20404;-70
2022/07/10 15:14:17;;;;;;;4.82;1.67;;;;;;;;;;4894139;29;20437;-71
2022/07/10 15:16:47;;;;;;;5.63;1.40;;;;;;;;;;4863080;29;20516;-69